createdAt,value
2018-08-06T00:00:27.751Z,20.57
2018-08-06T00:01:27.743Z,20.58
2018-08-06T00:02:27.733Z,20.62
2018-08-06T00:03:27.735Z,20.54
2018-08-06T00:04:27.708Z,20.54
2018-08-06T00:05:27.696Z,20.59
2018-08-06T00:06:27.687Z,20.50
2018-08-06T00:07:27.674Z,20.51
2018-08-06T00:08:27.677Z,20.39
2018-08-06T00:09:27.651Z,20.47
2018-08-06T00:10:27.640Z,20.50
2018-08-06T00:11:27.625Z,20.43
2018-08-06T00:12:27.616Z,20.36
2018-08-06T00:13:27.623Z,20.28
2018-08-06T00:14:27.594Z,20.24
2018-08-06T00:15:27.580Z,20.24
2018-08-06T00:16:27.572Z,20.31
2018-08-06T00:17:27.576Z,20.32
2018-08-06T00:18:27.562Z,20.17
2018-08-06T00:19:27.534Z,20.24
2018-08-06T00:20:27.530Z,20.23
2018-08-06T00:21:27.514Z,20.14
2018-08-06T00:22:27.503Z,20.21
2018-08-06T00:23:27.493Z,20.24
2018-08-06T00:24:27.494Z,20.26
2018-08-06T00:25:27.471Z,20.26
2018-08-06T00:26:27.457Z,20.31
2018-08-06T00:27:27.446Z,20.23
2018-08-06T00:28:27.452Z,20.33
2018-08-06T00:29:27.427Z,20.24
2018-08-06T00:30:27.412Z,20.28
2018-08-06T00:31:27.401Z,20.21
2018-08-06T00:32:27.389Z,20.16
2018-08-06T00:33:27.378Z,20.14
2018-08-06T00:34:27.393Z,20.02
2018-08-06T00:35:27.356Z,20.06
2018-08-06T00:36:27.346Z,19.99
2018-08-06T00:37:27.341Z,19.96
2018-08-06T00:38:27.322Z,19.87
2018-08-06T00:39:27.313Z,19.86
2018-08-06T00:40:27.313Z,19.80
2018-08-06T00:41:27.287Z,19.74
2018-08-06T00:42:27.279Z,19.77
2018-08-06T00:43:27.265Z,19.65
2018-08-06T00:44:27.252Z,19.73
2018-08-06T00:45:27.293Z,19.65
2018-08-06T00:46:27.245Z,19.63
2018-08-06T00:47:27.216Z,19.68
2018-08-06T00:48:27.207Z,19.63
2018-08-06T00:49:27.195Z,19.59
2018-08-06T00:50:27.185Z,19.68
2018-08-06T00:51:27.191Z,19.66
2018-08-06T00:52:27.166Z,19.62
2018-08-06T00:53:27.148Z,19.62
2018-08-06T00:54:27.137Z,19.61
2018-08-06T00:55:27.123Z,19.61
2018-08-06T00:56:27.133Z,19.63
2018-08-06T00:57:27.103Z,19.51
2018-08-06T00:58:27.088Z,19.55
2018-08-06T00:59:27.080Z,19.48
2018-08-06T01:00:27.070Z,19.40
2018-08-06T01:01:27.058Z,19.37
2018-08-06T01:02:27.069Z,19.39
2018-08-06T01:03:27.031Z,19.37
2018-08-06T01:04:27.027Z,19.41
2018-08-06T01:05:27.005Z,19.36
2018-08-06T01:06:26.997Z,19.33
2018-08-06T01:07:26.987Z,19.36
2018-08-06T01:08:26.990Z,19.32
2018-08-06T01:09:26.960Z,19.31
2018-08-06T01:10:26.949Z,19.26
2018-08-06T01:11:26.942Z,19.32
2018-08-06T01:12:26.939Z,19.32
2018-08-06T01:13:26.916Z,19.23
2018-08-06T01:14:26.910Z,19.21
2018-08-06T01:15:26.890Z,19.21
2018-08-06T01:16:26.896Z,19.11
2018-08-06T01:17:26.865Z,19.10
2018-08-06T01:18:26.856Z,19.19
2018-08-06T01:19:26.843Z,19.13
2018-08-06T01:20:26.833Z,19.04
2018-08-06T01:21:26.836Z,19.07
2018-08-06T01:22:26.808Z,19.04
2018-08-06T01:23:26.807Z,19.07
2018-08-06T01:24:26.789Z,19.00
2018-08-06T01:25:26.772Z,18.99
2018-08-06T01:26:26.773Z,18.99
2018-08-06T01:27:26.748Z,18.98
2018-08-06T01:28:26.746Z,19.06
2018-08-06T01:29:26.738Z,19.07
2018-08-06T01:30:26.718Z,19.11
2018-08-06T01:31:26.703Z,19.18
2018-08-06T01:32:26.693Z,19.21
2018-08-06T01:33:26.693Z,19.26
2018-08-06T01:34:26.668Z,19.28
2018-08-06T01:35:26.651Z,19.40
2018-08-06T01:36:26.643Z,19.50
2018-08-06T01:37:26.634Z,19.50
2018-08-06T01:38:26.629Z,19.61
2018-08-06T01:39:26.608Z,19.55
2018-08-06T01:40:26.636Z,19.62
2018-08-06T01:41:26.583Z,19.65
2018-08-06T01:42:26.571Z,19.63
2018-08-06T01:43:26.572Z,19.65
2018-08-06T01:44:26.552Z,19.68
2018-08-06T01:45:26.536Z,19.68
2018-08-06T01:46:26.526Z,19.66
2018-08-06T01:47:26.511Z,19.71
2018-08-06T01:48:26.518Z,19.65
2018-08-06T01:49:26.493Z,19.69
2018-08-06T01:50:26.478Z,19.71
2018-08-06T01:51:26.467Z,19.63
2018-08-06T01:52:26.453Z,19.56
2018-08-06T01:53:26.442Z,19.58
2018-08-06T01:54:26.443Z,19.54
2018-08-06T01:55:26.414Z,19.54
2018-08-06T01:56:26.421Z,19.47
2018-08-06T01:57:26.395Z,19.44
2018-08-06T01:58:26.382Z,19.48
2018-08-06T01:59:47.396Z,19.43
2018-08-06T02:00:26.358Z,19.43
2018-08-06T02:01:26.357Z,19.47
2018-08-06T02:02:26.332Z,19.43
2018-08-06T02:03:26.317Z,19.40
2018-08-06T02:04:26.312Z,19.37
2018-08-06T02:05:26.313Z,19.32
2018-08-06T02:06:26.284Z,19.29
2018-08-06T02:07:26.273Z,19.29
2018-08-06T02:08:26.262Z,19.32
2018-08-06T02:09:26.252Z,19.28
2018-08-06T02:10:26.256Z,19.19
2018-08-06T02:11:26.225Z,19.13
2018-08-06T02:12:26.215Z,19.13
2018-08-06T02:13:26.201Z,19.02
2018-08-06T02:14:26.195Z,19.04
2018-08-06T02:15:26.193Z,18.98
2018-08-06T02:16:26.169Z,18.90
2018-08-06T02:17:26.155Z,18.88
2018-08-06T02:18:26.151Z,18.76
2018-08-06T02:19:26.128Z,18.73
2018-08-06T02:20:26.134Z,18.73
2018-08-06T02:21:26.108Z,18.67
2018-08-06T02:22:26.096Z,18.73
2018-08-06T02:23:26.080Z,18.60
2018-08-06T02:24:26.069Z,18.62
2018-08-06T02:25:26.058Z,18.63
2018-08-06T02:26:26.058Z,18.67
2018-08-06T02:27:26.033Z,18.55
2018-08-06T02:28:26.023Z,18.69
2018-08-06T02:29:26.013Z,18.58
2018-08-06T02:30:26.004Z,18.62
2018-08-06T02:31:25.998Z,18.63
2018-08-06T02:32:25.972Z,18.63
2018-08-06T02:33:25.962Z,18.70
2018-08-06T02:34:25.946Z,18.62
2018-08-06T02:35:25.950Z,18.65
2018-08-06T02:36:25.941Z,18.65
2018-08-06T02:37:25.910Z,18.69
2018-08-06T02:38:25.899Z,18.69
2018-08-06T02:39:25.886Z,18.72
2018-08-06T02:40:25.878Z,18.70
2018-08-06T02:41:25.882Z,18.73
2018-08-06T02:42:25.852Z,18.80
2018-08-06T02:43:25.838Z,18.80
2018-08-06T02:44:25.831Z,18.84
2018-08-06T02:45:25.814Z,18.82
2018-08-06T02:46:25.803Z,18.84
2018-08-06T02:47:25.806Z,18.81
2018-08-06T02:48:25.779Z,18.84
2018-08-06T02:49:25.763Z,18.87
2018-08-06T02:50:25.752Z,18.82
2018-08-06T02:51:25.741Z,18.80
2018-08-06T02:52:25.729Z,18.85
2018-08-06T02:53:25.732Z,18.81
2018-08-06T02:54:25.707Z,18.72
2018-08-06T02:55:25.691Z,18.76
2018-08-06T02:56:25.683Z,18.76
2018-08-06T02:57:25.685Z,18.72
2018-08-06T02:58:25.672Z,18.75
2018-08-06T02:59:25.647Z,18.73
2018-08-06T03:00:25.635Z,18.73
2018-08-06T03:01:25.620Z,18.70
2018-08-06T03:02:25.607Z,18.73
2018-08-06T03:03:25.611Z,18.70
2018-08-06T03:04:25.582Z,18.81
2018-08-06T03:05:25.570Z,18.72
2018-08-06T03:06:25.556Z,18.73
2018-08-06T03:07:25.545Z,18.67
2018-08-06T03:08:25.548Z,18.76
2018-08-06T03:09:25.521Z,18.65
2018-08-06T03:10:25.522Z,18.65
2018-08-06T03:11:25.492Z,18.65
2018-08-06T03:12:25.488Z,18.65
2018-08-06T03:13:25.473Z,18.69
2018-08-06T03:14:25.455Z,18.58
2018-08-06T03:15:25.470Z,18.51
2018-08-06T03:16:25.435Z,18.66
2018-08-06T03:17:25.422Z,18.58
2018-08-06T03:18:25.410Z,18.62
2018-08-06T03:19:25.398Z,18.57
2018-08-06T03:20:25.388Z,18.51
2018-08-06T03:21:25.387Z,18.57
2018-08-06T03:22:25.359Z,18.54
2018-08-06T03:23:25.349Z,18.58
2018-08-06T03:24:25.338Z,18.50
2018-08-06T03:25:25.338Z,18.54
2018-08-06T03:26:25.313Z,18.45
2018-08-06T03:27:25.296Z,18.51
2018-08-06T03:28:25.288Z,18.48
2018-08-06T03:29:25.269Z,18.45
2018-08-06T03:30:46.273Z,18.44
2018-08-06T03:31:25.250Z,18.42
2018-08-06T03:32:25.237Z,18.35
2018-08-06T03:33:25.231Z,18.36
2018-08-06T03:34:25.214Z,18.36
2018-08-06T03:35:25.202Z,18.23
2018-08-06T03:36:25.205Z,18.26
2018-08-06T03:37:25.178Z,18.18
2018-08-06T03:38:25.159Z,18.17
2018-08-06T03:39:25.151Z,18.21
2018-08-06T03:40:25.155Z,18.15
2018-08-06T03:41:25.126Z,18.10
2018-08-06T03:42:25.132Z,18.07
2018-08-06T03:43:25.103Z,18.05
2018-08-06T03:44:25.084Z,17.99
2018-08-06T03:45:25.074Z,18.08
2018-08-06T03:46:25.083Z,17.95
2018-08-06T03:47:25.065Z,17.97
2018-08-06T03:48:25.039Z,17.87
2018-08-06T03:49:25.025Z,17.96
2018-08-06T03:50:25.016Z,18.00
2018-08-06T03:51:25.010Z,17.93
2018-08-06T03:52:25.004Z,17.93
2018-08-06T03:53:24.978Z,17.90
2018-08-06T03:54:24.966Z,17.96
2018-08-06T03:55:24.953Z,17.89
2018-08-06T03:56:24.952Z,17.92
2018-08-06T03:57:24.922Z,17.89
2018-08-06T03:58:24.922Z,17.90
2018-08-06T03:59:24.901Z,17.89
2018-08-06T04:00:24.886Z,17.84
2018-08-06T04:01:24.873Z,17.89
2018-08-06T04:02:24.860Z,17.93
2018-08-06T04:03:24.862Z,17.82
2018-08-06T04:04:24.839Z,17.87
2018-08-06T04:05:24.827Z,17.87
2018-08-06T04:06:24.807Z,17.86
2018-08-06T04:07:24.797Z,17.92
2018-08-06T04:08:24.798Z,17.81
2018-08-06T04:09:24.774Z,17.81
2018-08-06T04:10:24.758Z,17.81
2018-08-06T04:11:24.747Z,17.86
2018-08-06T04:12:24.744Z,17.82
2018-08-06T04:13:24.757Z,17.82
2018-08-06T04:14:24.704Z,17.78
2018-08-06T04:15:24.701Z,17.71
2018-08-06T04:16:24.682Z,17.77
2018-08-06T04:17:24.669Z,17.75
2018-08-06T04:18:24.654Z,17.79
2018-08-06T04:19:24.658Z,17.79
2018-08-06T04:20:24.631Z,17.79
2018-08-06T04:21:24.620Z,17.79
2018-08-06T04:22:24.605Z,17.72
2018-08-06T04:23:24.609Z,17.86
2018-08-06T04:24:24.581Z,17.81
2018-08-06T04:25:24.567Z,17.82
2018-08-06T04:26:24.554Z,17.89
2018-08-06T04:27:24.542Z,17.79
2018-08-06T04:28:24.543Z,18.00
2018-08-06T04:29:24.533Z,18.07
2018-08-06T04:30:24.503Z,18.21
2018-08-06T04:31:24.491Z,18.18
2018-08-06T04:32:24.478Z,18.26
2018-08-06T04:33:24.479Z,18.30
2018-08-06T04:34:24.452Z,18.41
2018-08-06T04:35:24.455Z,18.51
2018-08-06T04:36:24.425Z,18.69
2018-08-06T04:37:24.415Z,18.76
2018-08-06T04:38:24.438Z,18.90
2018-08-06T04:39:24.387Z,18.94
2018-08-06T04:40:24.390Z,19.07
2018-08-06T04:41:24.366Z,19.21
2018-08-06T04:42:24.354Z,19.32
2018-08-06T04:43:24.341Z,19.26
2018-08-06T04:44:24.343Z,19.39
2018-08-06T04:45:24.331Z,19.44
2018-08-06T04:46:24.307Z,19.56
2018-08-06T04:47:24.293Z,19.68
2018-08-06T04:48:24.291Z,19.74
2018-08-06T04:49:24.271Z,19.74
2018-08-06T04:50:24.271Z,19.73
2018-08-06T04:51:24.244Z,19.74
2018-08-06T04:52:24.731Z,19.68
2018-08-06T04:53:24.220Z,19.71
2018-08-06T04:54:24.210Z,19.59
2018-08-06T04:55:24.211Z,19.50
2018-08-06T04:56:24.186Z,19.54
2018-08-06T04:57:24.171Z,19.44
2018-08-06T04:58:24.171Z,19.39
2018-08-06T04:59:24.145Z,19.25
2018-08-06T05:00:24.134Z,19.29
2018-08-06T05:01:24.140Z,19.26
2018-08-06T05:02:24.113Z,19.10
2018-08-06T05:03:24.110Z,19.08
2018-08-06T05:04:24.094Z,19.18
2018-08-06T05:05:24.088Z,19.08
2018-08-06T05:06:24.090Z,19.07
2018-08-06T05:07:24.046Z,19.08
2018-08-06T05:08:24.040Z,19.10
2018-08-06T05:09:24.026Z,19.08
2018-08-06T05:10:24.016Z,19.08
2018-08-06T05:11:24.016Z,19.07
2018-08-06T05:12:23.991Z,19.19
2018-08-06T05:13:23.976Z,19.08
2018-08-06T05:14:23.967Z,19.22
2018-08-06T05:15:23.962Z,19.25
2018-08-06T05:16:23.951Z,19.23
2018-08-06T05:17:24.286Z,19.33
2018-08-06T05:18:23.917Z,19.23
2018-08-06T05:19:23.923Z,19.43
2018-08-06T05:20:23.897Z,19.48
2018-08-06T05:21:23.893Z,19.65
2018-08-06T05:22:23.894Z,19.63
2018-08-06T05:23:23.857Z,19.71
2018-08-06T05:24:23.902Z,19.77
2018-08-06T05:25:23.832Z,19.95
2018-08-06T05:26:23.821Z,19.99
2018-08-06T05:27:23.814Z,20.05
2018-08-06T05:28:23.814Z,20.03
2018-08-06T05:29:23.785Z,20.10
2018-08-06T05:30:23.772Z,20.20
2018-08-06T05:31:23.764Z,20.38
2018-08-06T05:32:23.753Z,20.47
2018-08-06T05:33:23.754Z,20.61
2018-08-06T05:34:23.722Z,20.77
2018-08-06T05:35:23.711Z,20.94
2018-08-06T05:36:23.704Z,21.21
2018-08-06T05:37:23.698Z,21.29
2018-08-06T05:38:23.675Z,21.34
2018-08-06T05:39:23.686Z,21.37
2018-08-06T05:40:23.657Z,21.58
2018-08-06T05:41:23.648Z,21.71
2018-08-06T05:42:23.663Z,21.91
2018-08-06T05:43:23.648Z,21.92
2018-08-06T05:44:23.616Z,22.12
2018-08-06T05:45:23.613Z,22.22
2018-08-06T05:46:23.589Z,22.31
2018-08-06T05:47:23.581Z,22.31
2018-08-06T05:48:24.194Z,22.45
2018-08-06T05:49:23.575Z,22.54
2018-08-06T05:50:23.545Z,22.54
2018-08-06T05:51:23.830Z,22.65
2018-08-06T05:52:27.406Z,22.68
2018-08-06T05:53:23.514Z,22.68
2018-08-06T05:54:23.518Z,22.65
2018-08-06T05:55:23.494Z,22.82
2018-08-06T05:56:23.482Z,22.80
2018-08-06T05:57:23.691Z,22.83
2018-08-06T05:58:23.494Z,22.88
2018-08-06T05:59:23.465Z,22.95
2018-08-06T06:00:23.451Z,23.07
2018-08-06T06:01:23.425Z,23.07
2018-08-06T06:02:23.421Z,23.16
2018-08-06T06:03:23.461Z,23.23
2018-08-06T06:04:23.389Z,23.32
2018-08-06T06:05:23.399Z,23.35
2018-08-06T06:06:23.385Z,23.35
2018-08-06T06:07:23.360Z,23.33
2018-08-06T06:08:23.347Z,23.36
2018-08-06T06:09:23.341Z,23.43
2018-08-06T06:10:23.349Z,23.42
2018-08-06T06:11:23.316Z,23.50
2018-08-06T06:12:23.311Z,23.54
2018-08-06T06:13:23.294Z,23.61
2018-08-06T06:14:23.282Z,23.63
2018-08-06T06:15:44.289Z,23.70
2018-08-06T06:16:23.271Z,23.73
2018-08-06T06:17:23.252Z,23.76
2018-08-06T06:18:23.238Z,23.83
2018-08-06T06:19:23.224Z,23.78
2018-08-06T06:20:23.223Z,23.66
2018-08-06T06:21:23.223Z,23.73
2018-08-06T06:22:23.560Z,23.58
2018-08-06T06:23:23.276Z,23.53
2018-08-06T06:24:23.194Z,23.53
2018-08-06T06:25:23.188Z,23.54
2018-08-06T06:26:23.176Z,23.42
2018-08-06T06:27:23.150Z,23.51
2018-08-06T06:28:23.142Z,23.61
2018-08-06T06:29:23.135Z,23.72
2018-08-06T06:30:23.114Z,23.83
2018-08-06T06:31:23.126Z,23.95
2018-08-06T06:32:23.099Z,23.97
2018-08-06T06:33:23.100Z,24.06
2018-08-06T06:34:23.101Z,24.16
2018-08-06T06:35:23.069Z,24.21
2018-08-06T06:36:23.069Z,24.20
2018-08-06T06:37:23.070Z,24.18
2018-08-06T06:38:23.032Z,24.30
2018-08-06T06:39:23.023Z,24.37
2018-08-06T06:40:23.023Z,24.46
2018-08-06T06:41:23.000Z,24.55
2018-08-06T06:42:22.988Z,24.52
2018-08-06T06:43:22.997Z,24.49
2018-08-06T06:44:22.987Z,24.61
2018-08-06T06:45:22.957Z,24.57
2018-08-06T06:46:22.950Z,24.57
2018-08-06T06:47:22.937Z,24.57
2018-08-06T06:48:22.946Z,24.57
2018-08-06T06:49:22.921Z,24.57
2018-08-06T06:50:22.907Z,24.58
2018-08-06T06:51:22.896Z,24.58
2018-08-06T06:52:22.889Z,24.46
2018-08-06T06:53:22.876Z,24.46
2018-08-06T06:54:22.941Z,24.42
2018-08-06T06:55:22.854Z,24.37
2018-08-06T06:56:22.845Z,24.49
2018-08-06T06:57:22.839Z,24.42
2018-08-06T06:58:22.827Z,24.46
2018-08-06T06:59:22.833Z,24.50
2018-08-06T07:00:22.804Z,24.58
2018-08-06T07:01:22.789Z,24.65
2018-08-06T07:02:22.781Z,24.61
2018-08-06T07:03:22.775Z,24.61
2018-08-06T07:04:22.783Z,24.60
2018-08-06T07:05:22.750Z,24.50
2018-08-06T07:06:22.751Z,24.40
2018-08-06T07:07:22.733Z,24.28
2018-08-06T07:08:22.782Z,24.20
2018-08-06T07:09:22.716Z,24.21
2018-08-06T07:10:22.718Z,24.21
2018-08-06T07:11:22.689Z,24.21
2018-08-06T07:12:22.683Z,24.21
2018-08-06T07:13:22.671Z,24.42
2018-08-06T07:14:22.656Z,24.43
2018-08-06T07:15:22.649Z,24.39
2018-08-06T07:16:22.651Z,24.37
2018-08-06T07:17:22.630Z,24.45
2018-08-06T07:18:22.618Z,24.43
2018-08-06T07:19:22.610Z,24.55
2018-08-06T07:20:22.644Z,24.65
2018-08-06T07:21:22.589Z,24.78
2018-08-06T07:22:22.576Z,24.90
2018-08-06T07:23:22.569Z,24.90
2018-08-06T07:24:22.555Z,25.06
2018-08-06T07:25:22.564Z,25.21
2018-08-06T07:26:22.550Z,25.25
2018-08-06T07:27:22.527Z,25.45
2018-08-06T07:28:22.541Z,25.46
2018-08-06T07:29:22.508Z,25.55
2018-08-06T07:30:22.499Z,25.62
2018-08-06T07:31:22.501Z,25.65
2018-08-06T07:32:22.475Z,25.70
2018-08-06T07:33:22.467Z,25.50
2018-08-06T07:34:22.458Z,25.50
2018-08-06T07:35:22.452Z,25.50
2018-08-06T07:36:22.449Z,25.50
2018-08-06T07:37:22.428Z,25.55
2018-08-06T07:38:22.417Z,25.62
2018-08-06T07:39:22.410Z,25.64
2018-08-06T07:40:22.399Z,25.67
2018-08-06T07:41:22.400Z,25.69
2018-08-06T07:42:22.375Z,25.72
2018-08-06T07:43:22.380Z,25.79
2018-08-06T07:44:22.357Z,25.88
2018-08-06T07:45:22.348Z,25.92
2018-08-06T07:46:22.349Z,26.01
2018-08-06T07:47:22.330Z,26.13
2018-08-06T07:48:22.327Z,26.13
2018-08-06T07:49:22.314Z,25.99
2018-08-06T07:50:22.312Z,25.92
2018-08-06T07:51:22.287Z,25.77
2018-08-06T07:52:22.277Z,25.65
2018-08-06T07:53:22.292Z,25.65
2018-08-06T07:54:22.258Z,25.67
2018-08-06T07:55:22.248Z,25.65
2018-08-06T07:56:22.235Z,25.67
2018-08-06T07:57:22.232Z,25.67
2018-08-06T07:58:22.245Z,25.69
2018-08-06T07:59:22.225Z,25.76
2018-08-06T08:00:22.203Z,25.88
2018-08-06T08:01:22.192Z,25.95
2018-08-06T08:02:22.182Z,26.10
2018-08-06T08:03:22.171Z,26.01
2018-08-06T08:04:22.177Z,26.18
2018-08-06T08:05:22.152Z,26.23
2018-08-06T08:06:22.166Z,26.30
2018-08-06T08:07:22.133Z,26.35
2018-08-06T08:08:22.133Z,26.45
2018-08-06T08:09:22.113Z,26.52
2018-08-06T08:10:22.102Z,26.66
2018-08-06T08:11:22.092Z,26.50
2018-08-06T08:12:22.082Z,26.54
2018-08-06T08:13:22.085Z,26.62
2018-08-06T08:14:22.085Z,26.57
2018-08-06T08:15:22.053Z,26.67
2018-08-06T08:16:22.047Z,26.84
2018-08-06T08:17:22.037Z,26.88
2018-08-06T08:18:22.023Z,26.95
2018-08-06T08:19:22.050Z,27.07
2018-08-06T08:20:22.159Z,27.02
2018-08-06T08:21:21.995Z,26.99
2018-08-06T08:22:21.990Z,27.03
2018-08-06T08:23:21.985Z,27.07
2018-08-06T08:24:21.982Z,27.18
2018-08-06T08:25:21.960Z,27.25
2018-08-06T08:26:21.950Z,27.43
2018-08-06T08:27:21.944Z,27.66
2018-08-06T08:28:21.938Z,27.66
2018-08-06T08:29:21.937Z,27.69
2018-08-06T08:30:21.914Z,27.75
2018-08-06T08:31:21.900Z,27.55
2018-08-06T08:32:21.898Z,27.46
2018-08-06T08:33:21.884Z,27.62
2018-08-06T08:34:21.873Z,27.63
2018-08-06T08:35:21.879Z,27.81
2018-08-06T08:36:21.853Z,27.85
2018-08-06T08:37:21.849Z,27.85
2018-08-06T08:38:21.834Z,27.82
2018-08-06T08:39:21.829Z,27.77
2018-08-06T08:40:21.852Z,27.85
2018-08-06T08:41:21.813Z,28.04
2018-08-06T08:42:21.798Z,28.15
2018-08-06T08:43:21.792Z,28.33
2018-08-06T08:44:21.784Z,28.44
2018-08-06T08:45:21.776Z,28.29
2018-08-06T08:46:21.782Z,28.39
2018-08-06T08:47:21.759Z,28.30
2018-08-06T08:48:21.752Z,28.44
2018-08-06T08:49:21.737Z,28.46
2018-08-06T08:50:21.730Z,28.52
2018-08-06T08:51:21.753Z,28.68
2018-08-06T08:52:21.744Z,28.61
2018-08-06T08:53:21.723Z,28.44
2018-08-06T08:54:21.700Z,28.19
2018-08-06T08:55:21.687Z,28.19
2018-08-06T08:56:21.698Z,28.33
2018-08-06T08:57:21.671Z,28.52
2018-08-06T08:58:21.660Z,28.76
2018-08-06T08:59:21.654Z,29.02
2018-08-06T09:00:21.644Z,29.26
2018-08-06T09:01:21.634Z,29.60
2018-08-06T09:02:21.640Z,29.82
2018-08-06T09:03:21.638Z,30.11
2018-08-06T09:04:21.623Z,30.39
2018-08-06T09:05:21.603Z,30.76
2018-08-06T09:06:21.593Z,31.10
2018-08-06T09:07:21.639Z,31.23
2018-08-06T09:08:21.576Z,31.26
2018-08-06T09:09:21.568Z,30.94
2018-08-06T09:10:21.570Z,31.09
2018-08-06T09:11:21.550Z,31.46
2018-08-06T09:12:21.545Z,31.58
2018-08-06T09:13:21.537Z,32.03
2018-08-06T09:14:21.545Z,32.67
2018-08-06T09:15:21.514Z,33.03
2018-08-06T09:16:21.514Z,33.12
2018-08-06T09:17:21.505Z,33.47
2018-08-06T09:18:21.496Z,33.37
2018-08-06T09:19:21.499Z,33.49
2018-08-06T09:20:21.480Z,33.60
2018-08-06T09:21:21.527Z,33.68
2018-08-06T09:22:21.463Z,33.18
2018-08-06T09:23:21.459Z,33.26
2018-08-06T09:24:21.464Z,33.18
2018-08-06T09:25:21.441Z,32.81
2018-08-06T09:26:21.432Z,33.14
2018-08-06T09:27:21.428Z,33.66
2018-08-06T09:28:21.422Z,33.82
2018-08-06T09:29:21.431Z,33.79
2018-08-06T09:30:21.416Z,33.07
2018-08-06T09:31:21.399Z,33.65
2018-08-06T09:32:21.396Z,33.61
2018-08-06T09:33:21.393Z,34.15
2018-08-06T09:34:21.385Z,34.82
2018-08-06T09:35:21.389Z,34.66
2018-08-06T09:36:21.368Z,33.84
2018-08-06T09:37:21.367Z,33.37
2018-08-06T09:38:21.363Z,33.56
2018-08-06T09:39:21.354Z,33.76
2018-08-06T09:40:21.449Z,33.72
2018-08-06T09:41:21.365Z,33.60
2018-08-06T09:42:21.349Z,33.49
2018-08-06T09:43:21.343Z,32.97
2018-08-06T09:44:21.342Z,32.59
2018-08-06T09:45:21.340Z,32.99
2018-08-06T09:46:21.340Z,33.69
2018-08-06T09:47:21.358Z,33.68
2018-08-06T09:48:21.332Z,33.91
2018-08-06T09:49:21.328Z,34.44
2018-08-06T09:50:21.336Z,34.54
2018-08-06T09:51:21.342Z,33.95
2018-08-06T09:52:21.323Z,34.49
2018-08-06T09:53:21.321Z,34.91
2018-08-06T09:54:21.316Z,35.50
2018-08-06T09:55:21.318Z,35.80
2018-08-06T09:56:21.317Z,35.92
2018-08-06T09:57:21.330Z,36.00
2018-08-06T09:58:21.317Z,35.84
2018-08-06T09:59:21.316Z,34.99
2018-08-06T10:00:21.312Z,34.99
2018-08-06T10:01:21.313Z,35.29
2018-08-06T10:02:21.330Z,35.81
2018-08-06T10:03:21.312Z,36.41
2018-08-06T10:04:21.312Z,36.23
2018-08-06T10:05:21.314Z,35.87
2018-08-06T10:06:21.544Z,36.07
2018-08-06T10:07:21.352Z,35.50
2018-08-06T10:08:21.325Z,35.26
2018-08-06T10:09:21.314Z,34.99
2018-08-06T10:10:21.319Z,35.09
2018-08-06T10:11:21.332Z,34.99
2018-08-06T10:12:21.313Z,34.73
2018-08-06T10:13:21.315Z,34.89
2018-08-06T10:14:21.317Z,34.50
2018-08-06T10:15:21.317Z,33.95
2018-08-06T10:16:21.316Z,33.91
2018-08-06T10:17:21.330Z,34.40
2018-08-06T10:18:21.311Z,34.99
2018-08-06T10:19:21.412Z,35.11
2018-08-06T10:20:21.335Z,35.03
2018-08-06T10:21:22.333Z,34.78
2018-08-06T10:22:21.335Z,34.42
2018-08-06T10:23:21.317Z,34.62
2018-08-06T10:24:21.320Z,34.44
2018-08-06T10:25:21.335Z,35.00
2018-08-06T10:26:21.319Z,35.38
2018-08-06T10:27:21.321Z,35.23
2018-08-06T10:28:21.322Z,36.05
2018-08-06T10:29:21.328Z,36.50
2018-08-06T10:30:21.418Z,36.19
2018-08-06T10:31:21.340Z,36.29
2018-08-06T10:32:21.328Z,35.90
2018-08-06T10:33:21.325Z,35.97
2018-08-06T10:34:21.328Z,35.84
2018-08-06T10:35:21.327Z,35.40
2018-08-06T10:36:21.332Z,35.89
2018-08-06T10:37:21.348Z,36.17
2018-08-06T10:38:21.333Z,36.07
2018-08-06T10:39:21.332Z,36.05
2018-08-06T10:40:21.357Z,36.29
2018-08-06T10:41:21.339Z,36.49
2018-08-06T10:42:21.350Z,36.35
2018-08-06T10:43:21.342Z,36.50
2018-08-06T10:44:21.356Z,35.96
2018-08-06T10:45:21.374Z,35.31
2018-08-06T10:46:21.343Z,35.34
2018-08-06T10:47:21.341Z,35.15
2018-08-06T10:48:21.428Z,35.53
2018-08-06T10:49:21.349Z,36.05
2018-08-06T10:50:21.351Z,36.60
2018-08-06T10:51:21.368Z,36.93
2018-08-06T10:52:21.368Z,37.02
2018-08-06T10:53:21.355Z,36.64
2018-08-06T10:54:21.370Z,36.87
2018-08-06T10:55:21.359Z,37.50
2018-08-06T10:56:21.359Z,37.94
2018-08-06T10:57:21.378Z,38.03
2018-08-06T10:58:21.363Z,38.15
2018-08-06T10:59:21.364Z,37.05
2018-08-06T11:00:21.365Z,36.98
2018-08-06T11:01:21.369Z,37.37
2018-08-06T11:02:21.381Z,37.70
2018-08-06T11:03:21.370Z,37.51
2018-08-06T11:04:21.383Z,37.63
2018-08-06T11:05:21.378Z,37.57
2018-08-06T11:06:21.382Z,37.03
2018-08-06T11:07:21.398Z,37.25
2018-08-06T11:08:21.410Z,37.49
2018-08-06T11:09:21.389Z,37.74
2018-08-06T11:10:21.391Z,37.21
2018-08-06T11:11:21.393Z,37.34
2018-08-06T11:12:21.396Z,37.17
2018-08-06T11:13:21.415Z,37.10
2018-08-06T11:14:21.444Z,37.02
2018-08-06T11:15:21.404Z,36.80
2018-08-06T11:16:21.408Z,37.34
2018-08-06T11:17:21.414Z,37.00
2018-08-06T11:18:21.430Z,36.93
2018-08-06T11:19:21.415Z,36.93
2018-08-06T11:20:21.427Z,37.36
2018-08-06T11:21:21.418Z,37.60
2018-08-06T11:22:21.421Z,37.78
2018-08-06T11:23:21.443Z,37.43
2018-08-06T11:24:21.433Z,36.69
2018-08-06T11:25:21.433Z,36.95
2018-08-06T11:26:21.441Z,37.07
2018-08-06T11:27:21.441Z,36.95
2018-08-06T11:28:21.505Z,37.51
2018-08-06T11:29:21.446Z,37.97
2018-08-06T11:30:21.450Z,38.18
2018-08-06T11:31:21.467Z,37.32
2018-08-06T11:32:21.451Z,37.13
2018-08-06T11:33:21.473Z,36.99
2018-08-06T11:34:21.461Z,37.21
2018-08-06T11:35:21.479Z,36.60
2018-08-06T11:36:21.482Z,36.16
2018-08-06T11:37:21.474Z,36.22
2018-08-06T11:38:21.472Z,36.43
2018-08-06T11:39:21.491Z,36.85
2018-08-06T11:40:21.550Z,37.43
2018-08-06T11:41:21.495Z,37.88
2018-08-06T11:42:21.515Z,37.51
2018-08-06T11:43:25.358Z,36.94
2018-08-06T11:44:27.372Z,36.93
2018-08-06T11:45:21.494Z,37.44
2018-08-06T11:46:21.495Z,37.21
2018-08-06T11:47:21.501Z,36.94
2018-08-06T11:48:21.517Z,36.60
2018-08-06T11:49:21.501Z,36.95
2018-08-06T11:50:21.509Z,37.32
2018-08-06T11:51:21.527Z,37.50
2018-08-06T11:52:21.527Z,37.88
2018-08-06T11:53:21.516Z,37.82
2018-08-06T11:54:21.520Z,38.03
2018-08-06T11:55:21.538Z,38.04
2018-08-06T11:56:21.542Z,37.85
2018-08-06T11:57:21.526Z,37.86
2018-08-06T11:58:21.540Z,37.96
2018-08-06T11:59:21.530Z,37.31
2018-08-06T12:00:21.531Z,36.23
2018-08-06T12:01:21.540Z,36.28
2018-08-06T12:02:21.554Z,35.96
2018-08-06T12:03:21.557Z,36.25
2018-08-06T12:04:21.543Z,36.20
2018-08-06T12:05:21.551Z,36.62
2018-08-06T12:06:21.550Z,37.07
2018-08-06T12:07:21.551Z,37.03
2018-08-06T12:08:21.624Z,36.60
2018-08-06T12:09:21.557Z,36.71
2018-08-06T12:10:21.564Z,37.34
2018-08-06T12:11:21.564Z,37.63
2018-08-06T12:12:21.561Z,37.84
2018-08-06T12:13:21.567Z,38.18
2018-08-06T12:14:21.583Z,37.86
2018-08-06T12:15:21.676Z,37.32
2018-08-06T12:16:21.572Z,37.41
2018-08-06T12:17:21.575Z,37.51
2018-08-06T12:18:21.596Z,37.72
2018-08-06T12:19:21.575Z,37.97
2018-08-06T12:20:21.595Z,38.28
2018-08-06T12:21:21.583Z,38.37
2018-08-06T12:22:21.615Z,38.12
2018-08-06T12:23:21.593Z,37.40
2018-08-06T12:24:21.614Z,36.91
2018-08-06T12:25:21.607Z,36.57
2018-08-06T12:26:21.628Z,36.84
2018-08-06T12:27:21.664Z,36.93
2018-08-06T12:28:21.598Z,36.85
2018-08-06T12:29:21.605Z,36.78
2018-08-06T12:30:21.624Z,36.49
2018-08-06T12:31:21.608Z,36.62
2018-08-06T12:32:21.609Z,36.95
2018-08-06T12:33:21.614Z,37.55
2018-08-06T12:34:21.614Z,37.86
2018-08-06T12:35:21.632Z,38.22
2018-08-06T12:36:21.642Z,38.22
2018-08-06T12:37:21.618Z,38.30
2018-08-06T12:38:21.627Z,37.91
2018-08-06T12:39:21.625Z,37.81
2018-08-06T12:40:21.647Z,37.59
2018-08-06T12:41:21.636Z,37.24
2018-08-06T12:42:21.630Z,36.76
2018-08-06T12:43:21.636Z,36.93
2018-08-06T12:44:21.637Z,37.25
2018-08-06T12:45:21.656Z,37.41
2018-08-06T12:46:21.706Z,37.62
2018-08-06T12:47:21.642Z,37.85
2018-08-06T12:48:21.650Z,37.74
2018-08-06T12:49:21.649Z,37.72
2018-08-06T12:50:21.650Z,37.86
2018-08-06T12:51:21.683Z,38.15
2018-08-06T12:52:21.656Z,38.16